sensor_id;sensor_type;location;lat;lon;timestamp;P1;durP1;ratioP1;P2;durP2;ratioP2
9938;SDS011;5008;50.656;7.188;2023-06-14T04:01:22;5.93;;;5.43;;
9938;SDS011;5008;50.656;7.188;2023-06-14T04:03:54;6.18;;;5.28;;
9938;SDS011;5008;50.656;7.188;2023-06-14T04:06:26;5.15;;;4.75;;
9938;SDS011;5008;50.656;7.188;2023-06-14T04:09:13;6.53;;;5.38;;
9938;SDS011;5008;50.656;7.188;2023-06-14T04:11:40;5.72;;;5.13;;
9938;SDS011;5008;50.656;7.188;2023-06-14T04:14:07;5.18;;;4.68;;
9938;SDS011;5008;50.656;7.188;2023-06-14T04:16:35;5.07;;;4.60;;
9938;SDS011;5008;50.656;7.188;2023-06-14T04:19:02;5.53;;;5.10;;
9938;SDS011;5008;50.656;7.188;2023-06-14T04:21:29;6.63;;;5.25;;
9938;SDS011;5008;50.656;7.188;2023-06-14T04:23:56;5.63;;;5.13;;
9938;SDS011;5008;50.656;7.188;2023-06-14T04:26:23;7.20;;;5.18;;
9938;SDS011;5008;50.656;7.188;2023-06-14T04:28:54;5.53;;;5.03;;
9938;SDS011;5008;50.656;7.188;2023-06-14T04:31:21;5.25;;;4.82;;
9938;SDS011;5008;50.656;7.188;2023-06-14T04:33:51;5.43;;;5.00;;
9938;SDS011;5008;50.656;7.188;2023-06-14T04:36:18;5.70;;;4.93;;
9938;SDS011;5008;50.656;7.188;2023-06-14T04:38:45;5.78;;;4.80;;
9938;SDS011;5008;50.656;7.188;2023-06-14T04:41:14;5.00;;;4.40;;
9938;SDS011;5008;50.656;7.188;2023-06-14T04:43:42;5.22;;;4.82;;
9938;SDS011;5008;50.656;7.188;2023-06-14T04:46:22;5.50;;;4.97;;
9938;SDS011;5008;50.656;7.188;2023-06-14T04:48:49;5.85;;;5.10;;
9938;SDS011;5008;50.656;7.188;2023-06-14T04:51:17;4.65;;;4.35;;
9938;SDS011;5008;50.656;7.188;2023-06-14T04:53:46;5.35;;;4.95;;
9938;SDS011;5008;50.656;7.188;2023-06-14T04:56:14;5.05;;;4.65;;
9938;SDS011;5008;50.656;7.188;2023-06-14T04:58:41;5.95;;;4.80;;
9938;SDS011;5008;50.656;7.188;2023-06-14T05:01:09;5.65;;;4.93;;
9938;SDS011;5008;50.656;7.188;2023-06-14T05:03:36;4.68;;;4.35;;
9938;SDS011;5008;50.656;7.188;2023-06-14T05:06:03;5.18;;;4.78;;
9938;SDS011;5008;50.656;7.188;2023-06-14T05:08:31;5.18;;;4.68;;
9938;SDS011;5008;50.656;7.188;2023-06-14T05:10:58;6.03;;;5.38;;
9938;SDS011;5008;50.656;7.188;2023-06-14T05:13:25;5.57;;;4.88;;
9938;SDS011;5008;50.656;7.188;2023-06-14T05:15:53;7.38;;;5.10;;
9938;SDS011;5008;50.656;7.188;2023-06-14T05:18:19;5.63;;;5.03;;
9938;SDS011;5008;50.656;7.188;2023-06-14T05:20:46;5.65;;;5.13;;
9938;SDS011;5008;50.656;7.188;2023-06-14T05:23:13;4.63;;;4.32;;
9938;SDS011;5008;50.656;7.188;2023-06-14T05:25:43;4.80;;;4.28;;
9938;SDS011;5008;50.656;7.188;2023-06-14T05:28:10;4.20;;;3.90;;
9938;SDS011;5008;50.656;7.188;2023-06-14T05:30:37;6.32;;;4.55;;
9938;SDS011;5008;50.656;7.188;2023-06-14T05:33:04;6.93;;;4.85;;
9938;SDS011;5008;50.656;7.188;2023-06-14T05:35:31;4.70;;;4.30;;
9938;SDS011;5008;50.656;7.188;2023-06-14T05:37:58;5.03;;;4.50;;
9938;SDS011;5008;50.656;7.188;2023-06-14T05:40:26;5.10;;;4.70;;
9938;SDS011;5008;50.656;7.188;2023-06-14T05:42:54;4.93;;;4.53;;
9938;SDS011;5008;50.656;7.188;2023-06-14T05:45:21;4.40;;;4.10;;
9938;SDS011;5008;50.656;7.188;2023-06-14T05:47:48;4.65;;;4.25;;
9938;SDS011;5008;50.656;7.188;2023-06-14T05:50:17;5.20;;;4.80;;
9938;SDS011;5008;50.656;7.188;2023-06-14T05:52:44;5.05;;;4.55;;
9938;SDS011;5008;50.656;7.188;2023-06-14T05:55:11;5.10;;;4.60;;
9938;SDS011;5008;50.656;7.188;2023-06-14T05:57:38;4.90;;;4.43;;
9938;SDS011;5008;50.656;7.188;2023-06-14T06:00:11;5.07;;;3.88;;
9938;SDS011;5008;50.656;7.188;2023-06-14T06:02:39;5.13;;;4.63;;
9938;SDS011;5008;50.656;7.188;2023-06-14T06:05:07;5.10;;;4.28;;
9938;SDS011;5008;50.656;7.188;2023-06-14T06:07:34;5.63;;;4.35;;
9938;SDS011;5008;50.656;7.188;2023-06-14T06:10:02;4.78;;;4.22;;
9938;SDS011;5008;50.656;7.188;2023-06-14T06:12:30;5.10;;;3.75;;
9938;SDS011;5008;50.656;7.188;2023-06-14T06:14:57;4.20;;;3.75;;
9938;SDS011;5008;50.656;7.188;2023-06-14T06:17:26;5.63;;;4.07;;
9938;SDS011;5008;50.656;7.188;2023-06-14T06:19:53;4.85;;;4.13;;
9938;SDS011;5008;50.656;7.188;2023-06-14T06:22:20;4.75;;;4.10;;
9938;SDS011;5008;50.656;7.188;2023-06-14T06:24:47;4.68;;;3.92;;
9938;SDS011;5008;50.656;7.188;2023-06-14T06:27:18;4.20;;;3.63;;
9938;SDS011;5008;50.656;7.188;2023-06-14T06:29:46;3.85;;;3.50;;
9938;SDS011;5008;50.656;7.188;2023-06-14T06:32:14;4.47;;;3.90;;
9938;SDS011;5008;50.656;7.188;2023-06-14T06:34:43;4.75;;;3.13;;
9938;SDS011;5008;50.656;7.188;2023-06-14T06:37:10;3.58;;;3.33;;
9938;SDS011;5008;50.656;7.188;2023-06-14T06:39:37;3.90;;;3.60;;
9938;SDS011;5008;50.656;7.188;2023-06-14T06:42:14;3.65;;;3.35;;
9938;SDS011;5008;50.656;7.188;2023-06-14T06:44:41;3.88;;;3.22;;
9938;SDS011;5008;50.656;7.188;2023-06-14T06:47:08;3.55;;;3.33;;
9938;SDS011;5008;50.656;7.188;2023-06-14T06:49:36;3.80;;;3.33;;
9938;SDS011;5008;50.656;7.188;2023-06-14T06:52:14;3.90;;;3.60;;
9938;SDS011;5008;50.656;7.188;2023-06-14T06:54:41;3.90;;;3.55;;
9938;SDS011;5008;50.656;7.188;2023-06-14T06:57:08;4.18;;;3.75;;
9938;SDS011;5008;50.656;7.188;2023-06-14T06:59:36;3.47;;;3.10;;
9938;SDS011;5008;50.656;7.188;2023-06-14T07:02:12;3.85;;;3.55;;
9938;SDS011;5008;50.656;7.188;2023-06-14T07:04:41;4.95;;;3.60;;
9938;SDS011;5008;50.656;7.188;2023-06-14T07:07:24;4.32;;;3.60;;
9938;SDS011;5008;50.656;7.188;2023-06-14T07:09:51;3.67;;;3.20;;
9938;SDS011;5008;50.656;7.188;2023-06-14T07:12:18;4.72;;;3.30;;
9938;SDS011;5008;50.656;7.188;2023-06-14T07:14:47;4.05;;;3.67;;
9938;SDS011;5008;50.656;7.188;2023-06-14T07:17:14;4.22;;;3.13;;
9938;SDS011;5008;50.656;7.188;2023-06-14T07:19:43;4.38;;;3.42;;
9938;SDS011;5008;50.656;7.188;2023-06-14T07:22:10;3.38;;;3.08;;
9938;SDS011;5008;50.656;7.188;2023-06-14T07:24:38;3.53;;;3.05;;
9938;SDS011;5008;50.656;7.188;2023-06-14T07:27:21;3.42;;;3.13;;
9938;SDS011;5008;50.656;7.188;2023-06-14T07:29:47;3.17;;;2.90;;
9938;SDS011;5008;50.656;7.188;2023-06-14T07:32:14;3.55;;;2.85;;
9938;SDS011;5008;50.656;7.188;2023-06-14T07:34:41;4.43;;;3.03;;
9938;SDS011;5008;50.656;7.188;2023-06-14T07:37:08;3.42;;;2.92;;
9938;SDS011;5008;50.656;7.188;2023-06-14T07:39:35;3.38;;;2.60;;
9938;SDS011;5008;50.656;7.188;2023-06-14T07:42:04;3.10;;;2.60;;
9938;SDS011;5008;50.656;7.188;2023-06-14T07:44:32;3.20;;;2.50;;
9938;SDS011;5008;50.656;7.188;2023-06-14T07:47:01;2.67;;;2.47;;
9938;SDS011;5008;50.656;7.188;2023-06-14T07:49:28;3.67;;;2.75;;
9938;SDS011;5008;50.656;7.188;2023-06-14T07:51:57;2.90;;;2.67;;
9938;SDS011;5008;50.656;7.188;2023-06-14T07:54:26;3.47;;;2.95;;
9938;SDS011;5008;50.656;7.188;2023-06-14T07:56:53;3.92;;;2.75;;
9938;SDS011;5008;50.656;7.188;2023-06-14T07:59:27;2.80;;;2.60;;
9938;SDS011;5008;50.656;7.188;2023-06-14T08:02:03;3.47;;;2.85;;
9938;SDS011;5008;50.656;7.188;2023-06-14T08:04:34;2.88;;;2.55;;
9938;SDS011;5008;50.656;7.188;2023-06-14T08:07:01;2.75;;;2.30;;
9938;SDS011;5008;50.656;7.188;2023-06-14T08:09:30;2.78;;;2.55;;
9938;SDS011;5008;50.656;7.188;2023-06-14T08:12:12;4.07;;;2.70;;
9938;SDS011;5008;50.656;7.188;2023-06-14T08:14:41;3.03;;;2.80;;
9938;SDS011;5008;50.656;7.188;2023-06-14T08:17:09;3.58;;;2.40;;
9938;SDS011;5008;50.656;7.188;2023-06-14T08:19:36;2.63;;;2.42;;
9938;SDS011;5008;50.656;7.188;2023-06-14T08:22:05;3.10;;;2.47;;
9938;SDS011;5008;50.656;7.188;2023-06-14T08:24:35;4.15;;;2.40;;
9938;SDS011;5008;50.656;7.188;2023-06-14T08:27:03;3.70;;;2.75;;
9938;SDS011;5008;50.656;7.188;2023-06-14T08:29:30;3.35;;;2.63;;
9938;SDS011;5008;50.656;7.188;2023-06-14T08:31:59;3.40;;;2.53;;
9938;SDS011;5008;50.656;7.188;2023-06-14T08:34:26;2.60;;;2.13;;
9938;SDS011;5008;50.656;7.188;2023-06-14T08:36:57;4.07;;;2.60;;
9938;SDS011;5008;50.656;7.188;2023-06-14T08:39:24;3.92;;;2.53;;
9938;SDS011;5008;50.656;7.188;2023-06-14T08:41:55;2.60;;;2.20;;
9938;SDS011;5008;50.656;7.188;2023-06-14T08:44:23;3.90;;;2.58;;
9938;SDS011;5008;50.656;7.188;2023-06-14T08:46:50;2.88;;;2.30;;
9938;SDS011;5008;50.656;7.188;2023-06-14T08:49:19;2.92;;;2.05;;
9938;SDS011;5008;50.656;7.188;2023-06-14T08:51:48;2.65;;;2.10;;
9938;SDS011;5008;50.656;7.188;2023-06-14T08:54:19;2.95;;;2.20;;
9938;SDS011;5008;50.656;7.188;2023-06-14T08:56:46;2.70;;;2.03;;
9938;SDS011;5008;50.656;7.188;2023-06-14T08:59:22;1.80;;;1.70;;
9938;SDS011;5008;50.656;7.188;2023-06-14T09:01:59;3.33;;;2.10;;
9938;SDS011;5008;50.656;7.188;2023-06-14T09:04:29;4.05;;;2.28;;
9938;SDS011;5008;50.656;7.188;2023-06-14T09:06:58;2.45;;;2.15;;
9938;SDS011;5008;50.656;7.188;2023-06-14T09:09:25;2.60;;;2.40;;
9938;SDS011;5008;50.656;7.188;2023-06-14T09:11:53;3.03;;;2.40;;
9938;SDS011;5008;50.656;7.188;2023-06-14T09:14:21;2.47;;;2.28;;
9938;SDS011;5008;50.656;7.188;2023-06-14T09:16:52;3.25;;;2.40;;
9938;SDS011;5008;50.656;7.188;2023-06-14T09:19:20;2.67;;;2.47;;
9938;SDS011;5008;50.656;7.188;2023-06-14T09:21:49;2.30;;;2.10;;
9938;SDS011;5008;50.656;7.188;2023-06-14T09:24:18;2.80;;;2.40;;
9938;SDS011;5008;50.656;7.188;2023-06-14T09:26:50;2.67;;;2.33;;
9938;SDS011;5008;50.656;7.188;2023-06-14T09:29:17;2.67;;;2.47;;
9938;SDS011;5008;50.656;7.188;2023-06-14T09:31:45;5.72;;;2.20;;
9938;SDS011;5008;50.656;7.188;2023-06-14T09:34:12;2.72;;;2.38;;
9938;SDS011;5008;50.656;7.188;2023-06-14T09:36:40;2.30;;;2.10;;
9938;SDS011;5008;50.656;7.188;2023-06-14T09:39:09;2.03;;;1.83;;
9938;SDS011;5008;50.656;7.188;2023-06-14T09:41:42;2.00;;;1.90;;
9938;SDS011;5008;50.656;7.188;2023-06-14T09:44:10;2.30;;;2.10;;
9938;SDS011;5008;50.656;7.188;2023-06-14T09:46:38;2.45;;;2.10;;
9938;SDS011;5008;50.656;7.188;2023-06-14T09:49:05;2.35;;;2.20;;
9938;SDS011;5008;50.656;7.188;2023-06-14T09:51:33;2.30;;;2.08;;
9938;SDS011;5008;50.656;7.188;2023-06-14T09:54:03;2.20;;;2.10;;
9938;SDS011;5008;50.656;7.188;2023-06-14T09:56:32;3.15;;;2.10;;
9938;SDS011;5008;50.656;7.188;2023-06-14T09:59:03;2.22;;;2.03;;
9938;SDS011;5008;50.656;7.188;2023-06-14T10:01:32;2.45;;;2.25;;
9938;SDS011;5008;50.656;7.188;2023-06-14T10:04:01;2.13;;;2.00;;
9938;SDS011;5008;50.656;7.188;2023-06-14T10:06:30;2.20;;;2.00;;
9938;SDS011;5008;50.656;7.188;2023-06-14T10:08:58;2.08;;;1.95;;
9938;SDS011;5008;50.656;7.188;2023-06-14T10:11:26;4.75;;;2.10;;
9938;SDS011;5008;50.656;7.188;2023-06-14T10:13:56;2.50;;;1.92;;
9938;SDS011;5008;50.656;7.188;2023-06-14T10:16:27;2.28;;;2.17;;
9938;SDS011;5008;50.656;7.188;2023-06-14T10:19:00;2.00;;;1.90;;
9938;SDS011;5008;50.656;7.188;2023-06-14T10:21:35;1.95;;;1.80;;
9938;SDS011;5008;50.656;7.188;2023-06-14T10:24:15;1.95;;;1.80;;
9938;SDS011;5008;50.656;7.188;2023-06-14T10:26:50;2.15;;;1.98;;
9938;SDS011;5008;50.656;7.188;2023-06-14T10:29:19;4.53;;;2.08;;
9938;SDS011;5008;50.656;7.188;2023-06-14T10:31:46;2.00;;;1.90;;
9938;SDS011;5008;50.656;7.188;2023-06-14T10:34:20;2.25;;;2.05;;
9938;SDS011;5008;50.656;7.188;2023-06-14T10:36:59;1.92;;;1.83;;
9938;SDS011;5008;50.656;7.188;2023-06-14T10:39:29;2.15;;;1.92;;
9938;SDS011;5008;50.656;7.188;2023-06-14T10:41:57;2.15;;;2.05;;
9938;SDS011;5008;50.656;7.188;2023-06-14T10:44:35;1.92;;;1.83;;
9938;SDS011;5008;50.656;7.188;2023-06-14T10:47:09;1.90;;;1.80;;
9938;SDS011;5008;50.656;7.188;2023-06-14T10:49:48;1.95;;;1.83;;
9938;SDS011;5008;50.656;7.188;2023-06-14T10:52:19;2.10;;;2.00;;
9938;SDS011;5008;50.656;7.188;2023-06-14T10:55:03;2.30;;;2.10;;
9938;SDS011;5008;50.656;7.188;2023-06-14T10:57:34;5.03;;;2.00;;
9938;SDS011;5008;50.656;7.188;2023-06-14T11:00:03;2.15;;;1.95;;
9938;SDS011;5008;50.656;7.188;2023-06-14T11:02:48;1.88;;;1.77;;
9938;SDS011;5008;50.656;7.188;2023-06-14T11:05:23;4.88;;;2.08;;
9938;SDS011;5008;50.656;7.188;2023-06-14T11:07:56;2.00;;;1.80;;
9938;SDS011;5008;50.656;7.188;2023-06-14T11:10:40;2.35;;;1.80;;
9938;SDS011;5008;50.656;7.188;2023-06-14T11:13:07;2.10;;;1.90;;
9938;SDS011;5008;50.656;7.188;2023-06-14T11:15:36;1.73;;;1.63;;
9938;SDS011;5008;50.656;7.188;2023-06-14T11:18:04;3.40;;;1.80;;
9938;SDS011;5008;50.656;7.188;2023-06-14T11:20:32;1.98;;;1.75;;
9938;SDS011;5008;50.656;7.188;2023-06-14T11:23:01;2.20;;;1.52;;
9938;SDS011;5008;50.656;7.188;2023-06-14T11:25:29;1.67;;;1.58;;
9938;SDS011;5008;50.656;7.188;2023-06-14T11:27:56;1.50;;;1.40;;
9938;SDS011;5008;50.656;7.188;2023-06-14T11:30:24;1.80;;;1.50;;
9938;SDS011;5008;50.656;7.188;2023-06-14T11:32:53;3.03;;;1.60;;
9938;SDS011;5008;50.656;7.188;2023-06-14T11:35:21;1.70;;;1.60;;
9938;SDS011;5008;50.656;7.188;2023-06-14T11:37:49;1.67;;;1.58;;
9938;SDS011;5008;50.656;7.188;2023-06-14T11:40:18;1.85;;;1.75;;
9938;SDS011;5008;50.656;7.188;2023-06-14T11:42:45;1.52;;;1.42;;
9938;SDS011;5008;50.656;7.188;2023-06-14T11:45:12;4.63;;;1.73;;
9938;SDS011;5008;50.656;7.188;2023-06-14T11:47:39;3.03;;;1.52;;
9938;SDS011;5008;50.656;7.188;2023-06-14T11:50:08;1.70;;;1.60;;
9938;SDS011;5008;50.656;7.188;2023-06-14T11:52:36;2.38;;;1.65;;
9938;SDS011;5008;50.656;7.188;2023-06-14T11:55:03;2.05;;;1.85;;
9938;SDS011;5008;50.656;7.188;2023-06-14T11:57:33;2.05;;;1.73;;
9938;SDS011;5008;50.656;7.188;2023-06-14T12:00:03;2.00;;;1.80;;
9938;SDS011;5008;50.656;7.188;2023-06-14T12:02:32;1.70;;;1.52;;
9938;SDS011;5008;50.656;7.188;2023-06-14T12:07:35;2.30;;;1.40;;
9938;SDS011;5008;50.656;7.188;2023-06-14T12:10:06;1.80;;;1.70;;
9938;SDS011;5008;50.656;7.188;2023-06-14T12:12:35;1.50;;;1.40;;
9938;SDS011;5008;50.656;7.188;2023-06-14T12:15:04;1.80;;;1.70;;
9938;SDS011;5008;50.656;7.188;2023-06-14T12:17:32;1.90;;;1.80;;
9938;SDS011;5008;50.656;7.188;2023-06-14T12:20:04;1.70;;;1.50;;
9938;SDS011;5008;50.656;7.188;2023-06-14T12:22:37;1.58;;;1.48;;
9938;SDS011;5008;50.656;7.188;2023-06-14T12:25:04;1.65;;;1.55;;
9938;SDS011;5008;50.656;7.188;2023-06-14T12:27:34;1.83;;;1.60;;
9938;SDS011;5008;50.656;7.188;2023-06-14T12:30:01;2.58;;;1.67;;
9938;SDS011;5008;50.656;7.188;2023-06-14T12:32:30;1.73;;;1.63;;
9938;SDS011;5008;50.656;7.188;2023-06-14T12:34:56;1.98;;;1.60;;
9938;SDS011;5008;50.656;7.188;2023-06-14T12:37:23;1.50;;;1.40;;
9938;SDS011;5008;50.656;7.188;2023-06-14T12:39:51;1.85;;;1.67;;
9938;SDS011;5008;50.656;7.188;2023-06-14T12:42:18;2.08;;;1.48;;
9938;SDS011;5008;50.656;7.188;2023-06-14T12:44:45;1.92;;;1.83;;
9938;SDS011;5008;50.656;7.188;2023-06-14T12:47:12;1.88;;;1.77;;
9938;SDS011;5008;50.656;7.188;2023-06-14T12:49:39;2.95;;;1.80;;
9938;SDS011;5008;50.656;7.188;2023-06-14T12:52:07;3.13;;;1.60;;
9938;SDS011;5008;50.656;7.188;2023-06-14T12:54:35;1.60;;;1.50;;
9938;SDS011;5008;50.656;7.188;2023-06-14T12:57:03;2.20;;;1.60;;
9938;SDS011;5008;50.656;7.188;2023-06-14T12:59:30;1.90;;;1.80;;
9938;SDS011;5008;50.656;7.188;2023-06-14T13:02:10;2.03;;;1.92;;
9938;SDS011;5008;50.656;7.188;2023-06-14T13:04:41;3.03;;;1.90;;
9938;SDS011;5008;50.656;7.188;2023-06-14T13:07:08;1.70;;;1.60;;
9938;SDS011;5008;50.656;7.188;2023-06-14T13:09:35;2.03;;;1.80;;
9938;SDS011;5008;50.656;7.188;2023-06-14T13:12:04;1.80;;;1.70;;
9938;SDS011;5008;50.656;7.188;2023-06-14T13:14:31;1.77;;;1.67;;
9938;SDS011;5008;50.656;7.188;2023-06-14T13:16:58;1.95;;;1.85;;
9938;SDS011;5008;50.656;7.188;2023-06-14T13:19:25;1.88;;;1.77;;
9938;SDS011;5008;50.656;7.188;2023-06-14T13:21:52;1.90;;;1.80;;
9938;SDS011;5008;50.656;7.188;2023-06-14T13:24:18;2.03;;;1.92;;
9938;SDS011;5008;50.656;7.188;2023-06-14T13:26:47;1.70;;;1.60;;
9938;SDS011;5008;50.656;7.188;2023-06-14T13:29:16;1.90;;;1.80;;
9938;SDS011;5008;50.656;7.188;2023-06-14T13:31:43;2.40;;;1.73;;
9938;SDS011;5008;50.656;7.188;2023-06-14T13:34:10;2.35;;;2.15;;
9938;SDS011;5008;50.656;7.188;2023-06-14T13:36:37;1.60;;;1.50;;
9938;SDS011;5008;50.656;7.188;2023-06-14T13:39:04;1.90;;;1.77;;
9938;SDS011;5008;50.656;7.188;2023-06-14T13:41:37;2.08;;;1.98;;
9938;SDS011;5008;50.656;7.188;2023-06-14T13:44:04;3.47;;;2.10;;
9938;SDS011;5008;50.656;7.188;2023-06-14T13:46:32;2.20;;;2.10;;
9938;SDS011;5008;50.656;7.188;2023-06-14T13:48:59;2.70;;;1.98;;
9938;SDS011;5008;50.656;7.188;2023-06-14T13:51:27;2.35;;;2.15;;
9938;SDS011;5008;50.656;7.188;2023-06-14T13:54:12;1.90;;;1.80;;
9938;SDS011;5008;50.656;7.188;2023-06-14T13:56:40;1.80;;;1.70;;
9938;SDS011;5008;50.656;7.188;2023-06-14T13:59:06;2.60;;;2.40;;
9938;SDS011;5008;50.656;7.188;2023-06-14T14:01:35;3.35;;;2.10;;
9938;SDS011;5008;50.656;7.188;2023-06-14T14:04:02;1.90;;;1.80;;
9938;SDS011;5008;50.656;7.188;2023-06-14T14:06:40;1.98;;;1.88;;
9938;SDS011;5008;50.656;7.188;2023-06-14T14:09:07;2.28;;;2.08;;
9938;SDS011;5008;50.656;7.188;2023-06-14T14:11:34;2.00;;;1.90;;
9938;SDS011;5008;50.656;7.188;2023-06-14T14:14:01;2.10;;;2.00;;
9938;SDS011;5008;50.656;7.188;2023-06-14T14:16:29;2.20;;;2.10;;
9938;SDS011;5008;50.656;7.188;2023-06-14T14:18:58;1.80;;;1.63;;
9938;SDS011;5008;50.656;7.188;2023-06-14T14:21:24;1.90;;;1.73;;
9938;SDS011;5008;50.656;7.188;2023-06-14T14:23:51;2.20;;;2.00;;
9938;SDS011;5008;50.656;7.188;2023-06-14T14:26:18;2.03;;;1.83;;
9938;SDS011;5008;50.656;7.188;2023-06-14T14:28:45;2.05;;;1.73;;
9938;SDS011;5008;50.656;7.188;2023-06-14T14:31:12;2.10;;;2.00;;
9938;SDS011;5008;50.656;7.188;2023-06-14T14:33:39;2.13;;;2.03;;
9938;SDS011;5008;50.656;7.188;2023-06-14T14:36:07;2.30;;;2.10;;
9938;SDS011;5008;50.656;7.188;2023-06-14T14:38:34;2.60;;;2.40;;
9938;SDS011;5008;50.656;7.188;2023-06-14T14:41:01;2.40;;;2.03;;
9938;SDS011;5008;50.656;7.188;2023-06-14T14:43:28;1.90;;;1.80;;
9938;SDS011;5008;50.656;7.188;2023-06-14T14:45:55;2.53;;;2.33;;
9938;SDS011;5008;50.656;7.188;2023-06-14T14:48:22;2.53;;;2.33;;
9938;SDS011;5008;50.656;7.188;2023-06-14T14:50:49;2.40;;;2.30;;
9938;SDS011;5008;50.656;7.188;2023-06-14T14:53:17;2.33;;;2.15;;
9938;SDS011;5008;50.656;7.188;2023-06-14T14:56:01;2.35;;;1.80;;
9938;SDS011;5008;50.656;7.188;2023-06-14T14:58:28;1.80;;;1.70;;
9938;SDS011;5008;50.656;7.188;2023-06-14T15:00:55;2.47;;;1.95;;
9938;SDS011;5008;50.656;7.188;2023-06-14T15:03:22;2.20;;;2.00;;
9938;SDS011;5008;50.656;7.188;2023-06-14T15:05:49;3.83;;;2.28;;
9938;SDS011;5008;50.656;7.188;2023-06-14T15:08:15;2.25;;;2.05;;
9938;SDS011;5008;50.656;7.188;2023-06-14T15:10:43;2.53;;;1.75;;
9938;SDS011;5008;50.656;7.188;2023-06-14T15:13:12;2.53;;;2.20;;
9938;SDS011;5008;50.656;7.188;2023-06-14T15:15:38;1.70;;;1.60;;
9938;SDS011;5008;50.656;7.188;2023-06-14T15:18:05;2.75;;;1.80;;
9938;SDS011;5008;50.656;7.188;2023-06-14T15:20:32;2.63;;;1.90;;
9938;SDS011;5008;50.656;7.188;2023-06-14T15:22:59;2.50;;;2.00;;
9938;SDS011;5008;50.656;7.188;2023-06-14T15:25:27;2.90;;;2.67;;
9938;SDS011;5008;50.656;7.188;2023-06-14T15:27:55;2.15;;;2.05;;
9938;SDS011;5008;50.656;7.188;2023-06-14T15:30:21;2.17;;;1.98;;
9938;SDS011;5008;50.656;7.188;2023-06-14T15:33:01;2.53;;;2.33;;
9938;SDS011;5008;50.656;7.188;2023-06-14T15:35:28;2.47;;;2.10;;
9938;SDS011;5008;50.656;7.188;2023-06-14T15:37:55;2.17;;;2.08;;
9938;SDS011;5008;50.656;7.188;2023-06-14T15:40:22;2.40;;;2.20;;
9938;SDS011;5008;50.656;7.188;2023-06-14T15:42:50;2.35;;;1.80;;
9938;SDS011;5008;50.656;7.188;2023-06-14T15:45:17;2.15;;;1.90;;
9938;SDS011;5008;50.656;7.188;2023-06-14T15:47:44;3.25;;;2.40;;
9938;SDS011;5008;50.656;7.188;2023-06-14T15:50:11;3.47;;;2.50;;
9938;SDS011;5008;50.656;7.188;2023-06-14T15:52:37;2.47;;;2.28;;
9938;SDS011;5008;50.656;7.188;2023-06-14T15:55:05;2.53;;;2.33;;
9938;SDS011;5008;50.656;7.188;2023-06-14T15:57:32;2.10;;;2.00;;
9938;SDS011;5008;50.656;7.188;2023-06-14T16:00:00;2.00;;;1.80;;
9938;SDS011;5008;50.656;7.188;2023-06-14T16:02:28;2.55;;;2.35;;
9938;SDS011;5008;50.656;7.188;2023-06-14T16:04:55;1.90;;;1.80;;
9938;SDS011;5008;50.656;7.188;2023-06-14T16:07:22;5.15;;;2.22;;
9938;SDS011;5008;50.656;7.188;2023-06-14T16:09:49;1.98;;;1.88;;
9938;SDS011;5008;50.656;7.188;2023-06-14T16:12:16;2.20;;;2.10;;
9938;SDS011;5008;50.656;7.188;2023-06-14T16:14:46;2.20;;;2.10;;
9938;SDS011;5008;50.656;7.188;2023-06-14T16:17:14;2.13;;;2.03;;
9938;SDS011;5008;50.656;7.188;2023-06-14T16:19:41;2.03;;;1.92;;
9938;SDS011;5008;50.656;7.188;2023-06-14T16:22:08;2.03;;;1.92;;
9938;SDS011;5008;50.656;7.188;2023-06-14T16:24:34;1.80;;;1.70;;
9938;SDS011;5008;50.656;7.188;2023-06-14T16:27:01;2.30;;;2.10;;
9938;SDS011;5008;50.656;7.188;2023-06-14T16:29:29;2.08;;;1.88;;
9938;SDS011;5008;50.656;7.188;2023-06-14T16:31:56;3.08;;;2.40;;
9938;SDS011;5008;50.656;7.188;2023-06-14T16:34:24;2.53;;;2.10;;
9938;SDS011;5008;50.656;7.188;2023-06-14T16:37:06;2.35;;;1.88;;
9938;SDS011;5008;50.656;7.188;2023-06-14T16:39:33;2.40;;;2.22;;
9938;SDS011;5008;50.656;7.188;2023-06-14T16:41:59;2.30;;;2.10;;
9938;SDS011;5008;50.656;7.188;2023-06-14T16:44:26;2.60;;;2.40;;
9938;SDS011;5008;50.656;7.188;2023-06-14T16:46:53;2.22;;;2.03;;
9938;SDS011;5008;50.656;7.188;2023-06-14T16:49:20;2.00;;;1.90;;
9938;SDS011;5008;50.656;7.188;2023-06-14T16:51:49;2.22;;;2.03;;
9938;SDS011;5008;50.656;7.188;2023-06-14T16:54:16;3.25;;;2.13;;
9938;SDS011;5008;50.656;7.188;2023-06-14T16:56:43;2.00;;;1.90;;
9938;SDS011;5008;50.656;7.188;2023-06-14T16:59:10;2.05;;;1.95;;
9938;SDS011;5008;50.656;7.188;2023-06-14T17:01:36;1.70;;;1.58;;
9938;SDS011;5008;50.656;7.188;2023-06-14T17:04:03;2.20;;;2.10;;
9938;SDS011;5008;50.656;7.188;2023-06-14T17:06:30;2.40;;;2.30;;
9938;SDS011;5008;50.656;7.188;2023-06-14T17:08:58;2.30;;;2.10;;
9938;SDS011;5008;50.656;7.188;2023-06-14T17:11:25;2.35;;;2.15;;
9938;SDS011;5008;50.656;7.188;2023-06-14T17:13:52;2.40;;;2.30;;
9938;SDS011;5008;50.656;7.188;2023-06-14T17:16:20;2.40;;;2.20;;
9938;SDS011;5008;50.656;7.188;2023-06-14T17:18:47;2.88;;;2.20;;
9938;SDS011;5008;50.656;7.188;2023-06-14T17:21:22;2.35;;;2.20;;
9938;SDS011;5008;50.656;7.188;2023-06-14T17:23:49;2.20;;;2.00;;
9938;SDS011;5008;50.656;7.188;2023-06-14T17:26:17;2.10;;;2.00;;
9938;SDS011;5008;50.656;7.188;2023-06-14T17:28:44;1.95;;;1.85;;
9938;SDS011;5008;50.656;7.188;2023-06-14T17:31:11;2.03;;;1.92;;
9938;SDS011;5008;50.656;7.188;2023-06-14T17:33:39;3.67;;;2.50;;
9938;SDS011;5008;50.656;7.188;2023-06-14T17:36:06;2.70;;;2.28;;
9938;SDS011;5008;50.656;7.188;2023-06-14T17:38:33;2.30;;;2.10;;
9938;SDS011;5008;50.656;7.188;2023-06-14T17:41:01;2.88;;;2.63;;
9938;SDS011;5008;50.656;7.188;2023-06-14T17:43:35;2.33;;;2.17;;
9938;SDS011;5008;50.656;7.188;2023-06-14T17:46:01;2.25;;;2.15;;
9938;SDS011;5008;50.656;7.188;2023-06-14T17:48:28;2.85;;;2.25;;
9938;SDS011;5008;50.656;7.188;2023-06-14T17:51:04;2.38;;;2.17;;
9938;SDS011;5008;50.656;7.188;2023-06-14T17:53:32;2.10;;;2.00;;
9938;SDS011;5008;50.656;7.188;2023-06-14T17:55:59;2.45;;;2.25;;
9938;SDS011;5008;50.656;7.188;2023-06-14T17:58:28;2.10;;;2.00;;
9938;SDS011;5008;50.656;7.188;2023-06-14T18:00:56;2.72;;;2.53;;
9938;SDS011;5008;50.656;7.188;2023-06-14T18:03:24;2.50;;;2.30;;
9938;SDS011;5008;50.656;7.188;2023-06-14T18:05:51;2.60;;;2.40;;
9938;SDS011;5008;50.656;7.188;2023-06-14T18:08:17;2.20;;;2.10;;
9938;SDS011;5008;50.656;7.188;2023-06-14T18:10:44;2.50;;;2.30;;
9938;SDS011;5008;50.656;7.188;2023-06-14T18:13:11;2.60;;;2.40;;
9938;SDS011;5008;50.656;7.188;2023-06-14T18:15:38;2.28;;;2.17;;
9938;SDS011;5008;50.656;7.188;2023-06-14T18:18:06;2.30;;;2.10;;
9938;SDS011;5008;50.656;7.188;2023-06-14T18:20:33;2.45;;;2.30;;
9938;SDS011;5008;50.656;7.188;2023-06-14T18:23:00;2.33;;;2.22;;
9938;SDS011;5008;50.656;7.188;2023-06-14T18:25:26;2.30;;;2.20;;
9938;SDS011;5008;50.656;7.188;2023-06-14T18:27:53;2.33;;;2.20;;
9938;SDS011;5008;50.656;7.188;2023-06-14T18:30:20;2.70;;;2.50;;
9938;SDS011;5008;50.656;7.188;2023-06-14T18:32:47;2.10;;;2.00;;
9938;SDS011;5008;50.656;7.188;2023-06-14T18:35:19;2.55;;;2.35;;
9938;SDS011;5008;50.656;7.188;2023-06-14T18:37:46;2.35;;;2.25;;
9938;SDS011;5008;50.656;7.188;2023-06-14T18:40:13;2.38;;;2.22;;
9938;SDS011;5008;50.656;7.188;2023-06-14T18:42:40;2.67;;;2.47;;
9938;SDS011;5008;50.656;7.188;2023-06-14T18:45:07;2.40;;;2.30;;
9938;SDS011;5008;50.656;7.188;2023-06-14T18:47:34;2.50;;;2.30;;
9938;SDS011;5008;50.656;7.188;2023-06-14T18:50:01;2.72;;;2.53;;
9938;SDS011;5008;50.656;7.188;2023-06-14T18:52:30;2.60;;;2.40;;
9938;SDS011;5008;50.656;7.188;2023-06-14T18:54:56;2.63;;;2.42;;
9938;SDS011;5008;50.656;7.188;2023-06-14T18:57:23;2.55;;;2.35;;
9938;SDS011;5008;50.656;7.188;2023-06-14T18:59:50;3.35;;;2.35;;
9938;SDS011;5008;50.656;7.188;2023-06-14T19:02:21;2.22;;;2.13;;
9938;SDS011;5008;50.656;7.188;2023-06-14T19:04:48;2.25;;;2.15;;
9938;SDS011;5008;50.656;7.188;2023-06-14T19:07:14;2.40;;;2.28;;
9938;SDS011;5008;50.656;7.188;2023-06-14T19:09:43;2.40;;;2.30;;
9938;SDS011;5008;50.656;7.188;2023-06-14T19:12:09;3.35;;;3.03;;
9938;SDS011;5008;50.656;7.188;2023-06-14T19:14:36;4.03;;;3.65;;
9938;SDS011;5008;50.656;7.188;2023-06-14T19:17:10;6.22;;;4.70;;
9938;SDS011;5008;50.656;7.188;2023-06-14T19:19:37;8.63;;;7.75;;
9938;SDS011;5008;50.656;7.188;2023-06-14T19:22:04;10.65;;;9.55;;
9938;SDS011;5008;50.656;7.188;2023-06-14T19:24:31;11.95;;;10.52;;
9938;SDS011;5008;50.656;7.188;2023-06-14T19:26:59;12.73;;;11.10;;